Time;durP1;ratioP1;P1;durP2;ratioP2;P2;SDS_P1;SDS_P2;PMS_P1;PMS_P2;Temp;Humidity;BMP_temperature;BMP_pressure;BME280_temperature;BME280_humidity;BME280_pressure;Samples;Min_cycle;Max_cycle;Signal;HPM_P1;HPM_P2
2022/07/07 00:00:26;;;;;;;;;;;;;;;13.40;75.27;99154.22;1420407;82;21137;-74
2022/07/07 00:02:28;;;;;;;10.95;5.10;;;;;;;13.38;75.33;99149.46;1414951;82;67313;-74
2022/07/07 00:04:30;;;;;;;;;;;;;;;13.36;75.28;99151.36;1415673;82;21592;-74
2022/07/07 00:06:31;;;;;;;10.08;6.10;;;;;;;13.34;75.37;99148.37;1415807;82;20169;-74
2022/07/07 00:08:32;;;;;;;;;;;;;;;13.33;75.47;99148.83;1417372;82;80840;-75
2022/07/07 00:10:33;;;;;;;13.75;5.22;;;;;;;13.33;75.49;99148.83;1415077;82;20141;-75
2022/07/07 00:12:34;;;;;;;11.28;5.72;;;;;;;13.31;75.46;99145.91;1414100;82;21062;-74
2022/07/07 00:14:35;;;;;;;9.63;5.80;;;;;;;13.27;75.42;99139.45;1416371;82;80810;-74
2022/07/07 00:16:37;;;;;;;12.13;5.87;;;;;;;13.25;75.45;99137.82;1416170;82;21046;-75
2022/07/07 00:18:39;;;;;;;12.98;5.65;;;;;;;13.22;75.41;99138.00;1416616;82;21105;-74
2022/07/07 00:20:41;;;;;;;15.35;6.22;;;;;;;13.19;75.43;99136.86;1415615;82;81701;-74
2022/07/07 00:22:42;;;;;;;12.30;5.70;;;;;;;13.16;75.47;99137.88;1416781;82;21078;-74
2022/07/07 00:24:43;;;;;;;6.67;5.20;;;;;;;13.13;75.51;99132.77;1417378;82;21039;-74
2022/07/07 00:26:44;;;;;;;;;;;;;;;13.14;75.62;99138.91;1418819;82;81521;-74
2022/07/07 00:28:45;;;;;;;10.88;5.25;;;;;;;13.15;75.79;99134.00;1413620;82;20170;-74
2022/07/07 00:30:46;;;;;;;24.63;5.80;;;;;;;13.14;75.80;99137.13;1416198;82;21038;-74
2022/07/07 00:32:47;;;;;;;33.73;8.45;;;;;;;13.14;75.82;99133.61;1414867;82;80681;-74
2022/07/07 00:34:48;;;;;;;13.58;5.50;;;;;;;13.15;75.87;99127.38;1417317;82;20955;-74
2022/07/07 00:36:49;;;;;;;7.15;5.35;;;;;;;13.15;75.90;99135.33;1390275;84;21064;-74
2022/07/07 00:38:50;;;;;;;;;;;;;;;13.14;75.91;99134.48;1415514;82;81529;-74
2022/07/07 00:40:53;;;;;;;10.80;5.25;;;;;;;13.10;75.92;99124.53;1402697;83;20148;-74
2022/07/07 00:42:53;;;;;;;13.65;4.75;;;;;;;13.07;75.91;99127.36;1404468;83;21083;-74
2022/07/07 00:44:54;;;;;;;5.62;4.80;;;;;;;13.02;75.79;99124.10;1401485;83;80918;-74
2022/07/07 00:46:57;;;;;;;7.30;5.08;;;;;;;12.97;75.79;99123.50;1406224;83;21067;-74
2022/07/07 00:48:58;;;;;;;7.22;5.03;;;;;;;12.91;75.79;99120.73;1402633;83;21058;-74
2022/07/07 00:51:00;;;;;;;34.55;5.17;;;;;;;12.87;75.83;99120.52;1402354;83;80847;-75
2022/07/07 00:53:01;;;;;;;7.47;5.30;;;;;;;12.86;75.88;99124.13;1404108;83;21063;-75
2022/07/07 00:55:02;;;;;;;15.98;5.30;;;;;;;12.83;76.01;99122.94;1404603;83;21066;-74
2022/07/07 00:57:05;;;;;;;14.45;5.80;;;;;;;12.77;76.04;99125.46;1396202;83;80720;-75
2022/07/07 00:59:07;;;;;;;7.65;6.15;;;;;;;12.74;76.17;99122.98;1395782;84;21520;-74
2022/07/07 01:01:08;;;;;;;22.45;5.28;;;;;;;12.72;76.20;99123.56;1396504;84;21039;-74
2022/07/07 01:03:09;;;;;;;;;;;;;;;12.70;76.14;99120.12;1396335;83;80885;-74
2022/07/07 01:05:11;;;;;;;20.27;5.85;;;;;;;12.66;76.18;99119.06;1395621;84;20489;-74
2022/07/07 01:07:13;;;;;;;10.90;5.30;;;;;;;12.62;76.20;99121.49;1396311;83;21020;-74
2022/07/07 01:09:14;;;;;;;14.70;5.95;;;;;;;12.59;76.20;99122.51;1393936;84;81605;-74
2022/07/07 01:11:15;;;;;;;13.70;5.67;;;;;;;12.57;76.23;99123.05;1414533;83;20983;-74
2022/07/07 01:13:16;;;;;;;8.48;5.87;;;;;;;12.56;76.31;99120.88;1412343;83;21596;-74
2022/07/07 01:15:17;;;;;;;6.20;5.70;;;;;;;12.55;76.31;99117.00;1413414;82;81562;-74
2022/07/07 01:17:19;;;;;;;10.23;5.60;;;;;;;12.52;76.29;99115.85;1413992;83;21004;-75
2022/07/07 01:19:21;;;;;;;16.45;5.80;;;;;;;12.46;76.26;99117.04;1411680;83;21532;-74
2022/07/07 01:21:24;;;;;;;14.65;5.78;;;;;;;12.42;76.32;99119.46;1412714;83;81767;-75
2022/07/07 01:23:25;;;;;;;11.12;5.97;;;;;;;12.41;76.41;99119.91;1409931;83;20995;-75
2022/07/07 01:25:27;;;;;;;13.08;5.45;;;;;;;12.40;76.47;99122.16;1412242;83;21062;-75
2022/07/07 01:27:27;;;;;;;10.03;5.60;;;;;;;12.40;76.56;99118.19;1414555;83;82284;-75
2022/07/07 01:29:29;;;;;;;8.18;5.22;;;;;;;12.42;76.66;99129.55;1415451;83;20951;-75
2022/07/07 01:31:29;;;;;;;;;;;;;;;12.46;76.73;99129.38;1415908;82;21015;-75
2022/07/07 01:33:30;;;;;;;13.80;5.85;;;;;;;12.44;76.69;99122.38;1410291;83;67241;-75
2022/07/07 01:35:31;;;;;;;10.88;6.15;;;;;;;12.40;76.60;99122.64;1416121;82;21946;-74
2022/07/07 01:37:33;;;;;;;19.52;6.20;;;;;;;12.36;76.54;99128.55;1413018;82;21067;-74
2022/07/07 01:39:36;;;;;;;12.30;6.05;;;;;;;12.32;76.59;99123.03;1412828;82;81549;-75
2022/07/07 01:41:37;;;;;;;8.43;6.60;;;;;;;12.30;76.63;99120.11;1414308;82;21050;-74
2022/07/07 01:43:38;;;;;;;13.22;5.53;;;;;;;12.29;76.70;99123.20;1412925;82;21011;-74
2022/07/07 01:45:39;;;;;;;;;;;;;;;12.28;76.71;99120.20;1414310;82;81718;-74
2022/07/07 01:47:40;;;;;;;9.90;5.92;;;;;;;12.25;76.77;99111.95;1414733;82;20162;-75
2022/07/07 01:49:40;;;;;;;;;;;;;;;12.23;76.79;99115.61;1415546;82;21031;-75
2022/07/07 01:51:41;;;;;;;14.75;5.97;;;;;;;12.20;76.86;99119.27;1412469;82;66950;-75
2022/07/07 01:53:42;;;;;;;11.55;6.25;;;;;;;12.18;76.92;99122.44;1412193;82;21070;-74
2022/07/07 01:55:43;;;;;;;15.50;6.42;;;;;;;12.19;76.97;99124.64;1412884;82;21074;-75
2022/07/07 01:57:44;;;;;;;23.50;6.90;;;;;;;12.18;76.97;99121.12;1407072;82;80931;-75
2022/07/07 01:59:45;;;;;;;6.90;6.20;;;;;;;12.17;76.97;99118.56;1407896;83;21035;-74
2022/07/07 02:01:46;;;;;;;10.50;6.97;;;;;;;12.15;76.96;99117.33;1405323;83;21086;-74
2022/07/07 02:03:47;;;;;;;14.03;6.85;;;;;;;12.14;76.93;99118.73;1402732;83;81825;-74
2022/07/07 02:05:48;;;;;;;12.50;6.95;;;;;;;12.11;76.95;99113.14;1405558;83;22173;-74
2022/07/07 02:07:49;;;;;;;14.38;6.55;;;;;;;12.00;76.95;99100.48;1381721;84;21009;-75
2022/07/07 02:09:50;;;;;;;17.77;7.10;;;;;;;12.09;77.09;99117.66;1402891;83;81650;-75
2022/07/07 02:11:51;;;;;;;12.60;6.67;;;;;;;12.07;77.04;99114.23;1407318;83;21082;-75
2022/07/07 02:13:54;;;;;;;9.95;7.08;;;;;;;12.02;77.04;99115.80;1406409;83;21004;-75
2022/07/07 02:15:55;;;;;;;20.30;7.20;;;;;;;12.03;77.14;99116.64;1404647;83;80539;-75
2022/07/07 02:17:56;;;;;;;14.80;6.83;;;;;;;12.03;77.20;99122.80;1383173;84;20999;-75
2022/07/07 02:19:57;;;;;;;;;;;;;;;12.01;77.25;99133.90;1408656;83;21020;-75
2022/07/07 02:21:58;;;;;;;7.90;6.63;;;;;;;12.01;77.32;99128.61;1403661;83;68009;-74
2022/07/07 02:24:00;;;;;;;15.35;6.30;;;;;;;11.98;77.33;99130.10;1403675;83;21661;-75
2022/07/07 02:26:01;;;;;;;13.83;6.53;;;;;;;11.98;77.33;99118.21;1404173;83;21060;-74
2022/07/07 02:28:01;;;;;;;15.53;7.08;;;;;;;11.98;77.34;99112.09;1386446;84;80638;-74
2022/07/07 02:30:03;;;;;;;9.65;6.80;;;;;;;11.96;77.35;99114.78;1404794;83;20992;-76
2022/07/07 02:32:04;;;;;;;15.28;6.70;;;;;;;11.96;77.43;99120.06;1404407;83;21464;-74
2022/07/07 02:34:06;;;;;;;8.50;6.60;;;;;;;11.96;77.46;99120.54;1404899;83;81416;-75
2022/07/07 02:36:08;;;;;;;9.15;6.47;;;;;;;11.95;77.44;99114.42;1405872;83;21035;-74
2022/07/07 02:38:09;;;;;;;12.47;7.10;;;;;;;11.92;77.43;99111.43;1404544;83;21463;-75
2022/07/07 02:40:10;;;;;;;14.35;6.50;;;;;;;11.84;77.45;99096.92;1375341;84;80768;-74
2022/07/07 02:42:11;;;;;;;8.48;6.70;;;;;;;11.91;77.50;99106.23;1406844;83;21079;-74
2022/07/07 02:44:12;;;;;;;13.10;7.03;;;;;;;11.93;77.55;99105.67;1404541;83;81725;-73
2022/07/07 02:46:13;;;;;;;10.15;6.80;;;;;;;11.95;77.60;99107.81;1404768;83;21067;-74
2022/07/07 02:48:16;;;;;;;15.25;6.67;;;;;;;11.97;77.70;99103.77;1402701;83;21116;-74
2022/07/07 02:50:17;;;;;;;12.05;5.92;;;;;;;11.98;77.68;99102.36;1403213;83;80719;-74
2022/07/07 02:52:18;;;;;;;;;;;;;;;11.98;77.61;99105.48;1408373;83;22344;-74
2022/07/07 02:54:19;;;;;;;19.23;5.58;;;;;;;11.95;77.68;99098.57;1403964;83;20134;-74
2022/07/07 02:56:20;;;;;;;21.12;5.72;;;;;;;11.93;77.56;99104.34;1402539;83;81727;-74
2022/07/07 02:58:22;;;;;;;17.98;6.92;;;;;;;11.86;77.50;99095.05;1383416;84;21070;-74
2022/07/07 03:00:24;;;;;;;14.28;5.33;;;;;;;11.86;77.55;99099.00;1403645;83;21619;-74
2022/07/07 03:02:25;;;;;;;20.08;5.67;;;;;;;11.81;77.50;99087.36;1404617;83;80903;-74
2022/07/07 03:04:26;;;;;;;17.37;5.87;;;;;;;11.76;77.43;99090.70;1405097;83;21046;-74
2022/07/07 03:06:27;;;;;;;15.58;5.78;;;;;;;11.74;77.50;99093.42;1403205;83;21536;-74
2022/07/07 03:08:28;;;;;;;;;;;;;;;11.74;77.57;99101.34;1405528;83;80944;-74
2022/07/07 03:10:29;;;;;;;39.50;7.58;;;;;;;11.74;77.67;99108.39;1405267;83;21043;-73
2022/07/07 03:12:30;;;;;;;28.50;7.30;;;;;;;11.73;77.68;99108.87;1403490;83;21032;-73
2022/07/07 03:14:31;;;;;;;25.17;7.25;;;;;;;11.73;77.69;99102.27;1406951;83;80822;-73
2022/07/07 03:16:32;;;;;;;22.98;7.08;;;;;;;11.73;77.73;99104.91;1406037;83;21070;-73
2022/07/07 03:18:33;;;;;;;29.90;7.70;;;;;;;11.75;77.83;99100.42;1402906;83;21621;-74
2022/07/07 03:20:34;;;;;;;22.13;7.37;;;;;;;11.78;77.80;99105.14;1386922;84;81951;-74
2022/07/07 03:22:35;;;;;;;;;;;;;;;11.76;77.81;99103.42;1385553;84;21010;-73
2022/07/07 03:24:36;;;;;;;18.90;7.60;;;;;;;11.78;77.87;99107.30;1403522;83;20186;-73
2022/07/07 03:26:37;;;;;;;34.85;8.40;;;;;;;11.78;77.94;99103.34;1404914;83;80892;-74
2022/07/07 03:28:38;;;;;;;11.97;7.75;;;;;;;11.81;77.96;99099.70;1404818;83;21048;-74
2022/07/07 03:30:39;;;;;;;23.18;9.05;;;;;;;11.84;78.04;99098.24;1404791;83;21079;-73
2022/07/07 03:32:40;;;;;;;;;;;;;;;11.87;78.12;99097.59;1406185;83;82068;-73
2022/07/07 03:34:41;;;;;;;24.65;7.95;;;;;;;11.92;78.22;99093.39;1405625;83;20138;-73
2022/07/07 03:36:42;;;;;;;;;;;;;;;11.93;78.21;99082.77;1407231;83;21156;-73
2022/07/07 03:38:43;;;;;;;20.75;7.50;;;;;;;11.96;78.29;99085.72;1404930;83;67273;-74
2022/07/07 03:40:45;;;;;;;14.63;7.03;;;;;;;11.99;78.31;99082.95;1405643;83;21074;-73
2022/07/07 03:42:46;;;;;;;18.85;7.85;;;;;;;12.03;78.35;99088.45;1403166;83;21070;-74
2022/07/07 03:44:48;;;;;;;8.13;7.35;;;;;;;12.07;78.36;99089.13;1407162;83;81726;-75
2022/07/07 03:46:49;;;;;;;11.83;7.92;;;;;;;12.11;78.33;99077.95;1403472;83;21554;-73
2022/07/07 03:48:50;;;;;;;12.95;7.92;;;;;;;12.13;78.34;99084.86;1404399;83;21348;-74
2022/07/07 03:50:50;;;;;;;;;;;;;;;12.16;78.35;99089.13;1406924;83;81030;-74
2022/07/07 03:52:51;;;;;;;18.47;7.73;;;;;;;12.15;78.39;99088.27;1381961;84;20188;-74
2022/07/07 03:54:52;;;;;;;19.82;7.60;;;;;;;12.18;78.48;99084.60;1369939;85;21134;-75
2022/07/07 03:56:53;;;;;;;9.33;7.20;;;;;;;12.22;78.47;99085.67;1404574;83;82068;-74
2022/07/07 03:58:54;;;;;;;;;;;;;;;12.27;78.53;99089.41;1406716;83;21000;-74
2022/07/07 04:00:55;;;;;;;15.55;7.95;;;;;;;12.33;78.59;99085.10;1404240;83;20157;-74
2022/07/07 04:02:56;;;;;;;;;;;;;;;12.37;78.56;99090.61;1384510;84;81554;-74
2022/07/07 04:04:57;;;;;;;15.00;8.48;;;;;;;12.44;78.61;99091.14;1404324;83;20526;-73
2022/07/07 04:06:58;;;;;;;13.25;8.23;;;;;;;12.50;78.60;99092.59;1403624;83;21066;-73
2022/07/07 04:08:59;;;;;;;27.17;7.08;;;;;;;12.57;78.56;99089.99;1404113;83;80856;-75
2022/07/07 04:11:00;;;;;;;19.32;7.67;;;;;;;12.62;78.52;99089.28;1405429;83;21102;-74
2022/07/07 04:13:01;;;;;;;;;;;;;;;12.66;78.48;99090.82;1409100;83;21027;-74
2022/07/07 04:15:01;;;;;;;29.15;8.00;;;;;;;12.71;78.57;99091.43;1403988;83;67929;-74
2022/07/07 04:17:02;;;;;;;;;;;;;;;12.73;78.40;99085.57;1377609;84;21600;-74
2022/07/07 04:19:05;;;;;;;14.03;6.83;;;;;;;12.75;78.40;99089.00;1403936;83;20188;-74
2022/07/07 04:21:07;;;;;;;12.03;6.78;;;;;;;12.76;78.33;99089.36;1403330;83;80772;-74
2022/07/07 04:23:07;;;;;;;;;;;;;;;12.76;78.28;99093.33;1408787;83;22183;-74
2022/07/07 04:25:09;;;;;;;19.50;6.90;;;;;;;12.75;78.34;99094.29;1407631;83;20164;-74
2022/07/07 04:27:10;;;;;;;13.03;6.90;;;;;;;12.76;78.29;99094.65;1403447;83;80853;-74
2022/07/07 04:29:11;;;;;;;13.48;7.78;;;;;;;12.81;78.34;99090.90;1402673;83;21059;-74
2022/07/07 04:31:12;;;;;;;16.48;8.08;;;;;;;12.84;78.36;99087.63;1404685;83;21285;-74
2022/07/07 04:33:13;;;;;;;15.28;8.05;;;;;;;12.88;78.38;99087.00;1383829;84;80574;-74
2022/07/07 04:35:14;;;;;;;22.87;9.30;;;;;;;12.89;78.35;99086.03;1405016;83;21007;-74
2022/07/07 04:37:15;;;;;;;;;;;;;;;12.91;78.35;99081.53;1407473;83;21912;-74
2022/07/07 04:39:16;;;;;;;13.72;8.33;;;;;;;12.94;78.45;99080.02;1405430;83;67155;-74
2022/07/07 04:41:17;;;;;;;;;;;;;;;12.83;78.45;99057.30;1407688;83;21011;-74
2022/07/07 04:43:18;;;;;;;9.60;8.68;;;;;;;12.99;78.44;99078.43;1404669;83;20682;-74
2022/07/07 04:45:19;;;;;;;;;;;;;;;13.00;78.52;99077.05;1405865;83;81499;-75
2022/07/07 04:47:19;;;;;;;11.22;8.28;;;;;;;13.04;78.59;99079.91;1404610;83;20134;-74
2022/07/07 04:49:21;;;;;;;12.53;8.25;;;;;;;13.06;78.53;99083.30;1404154;83;21040;-74
2022/07/07 04:51:23;;;;;;;10.63;8.53;;;;;;;13.07;78.50;99084.14;1403978;83;82258;-74
2022/07/07 04:53:24;;;;;;;14.03;9.05;;;;;;;13.08;78.50;99082.77;1405069;83;21613;-74
2022/07/07 04:55:25;;;;;;;16.87;9.00;;;;;;;13.08;78.46;99084.08;1403096;83;21495;-74
2022/07/07 04:57:26;;;;;;;;;;;;;;;13.01;78.48;99076.09;1406569;83;81726;-74
2022/07/07 04:59:27;;;;;;;13.20;8.53;;;;;;;13.14;78.55;99088.62;1406687;83;20162;-74
2022/07/07 05:01:28;;;;;;;21.75;8.75;;;;;;;13.13;78.54;99086.45;1401732;83;21078;-74
2022/07/07 05:03:29;;;;;;;16.00;8.20;;;;;;;13.16;78.52;99079.66;1403032;83;81500;-74
2022/07/07 05:05:30;;;;;;;12.65;8.70;;;;;;;13.19;78.54;99083.44;1406090;83;21294;-74
2022/07/07 05:07:31;;;;;;;14.07;8.13;;;;;;;13.25;78.62;99082.23;1405141;83;21071;-74
2022/07/07 05:09:34;;;;;;;25.27;9.28;;;;;;;13.30;78.59;99082.83;1403855;83;80794;-74
2022/07/07 05:11:35;;;;;;;13.78;9.23;;;;;;;13.35;78.58;99082.59;1404925;83;21268;-73
2022/07/07 05:13:37;;;;;;;15.32;10.75;;;;;;;13.39;78.57;99078.85;1405090;83;21100;-73
2022/07/07 05:15:38;;;;;;;15.18;10.35;;;;;;;13.45;78.64;99077.16;1405068;83;80917;-73
2022/07/07 05:17:39;;;;;;;16.52;9.73;;;;;;;13.53;78.68;99080.69;1405321;83;21537;-73
2022/07/07 05:19:41;;;;;;;11.95;9.90;;;;;;;13.53;78.64;99060.83;1406510;83;21039;-73
2022/07/07 05:21:41;;;;;;;;;;;;;;;13.65;78.60;99073.31;1408648;83;80822;-74
2022/07/07 05:23:42;;;;;;;13.65;9.18;;;;;;;13.70;78.58;99070.41;1384678;84;20153;-74
2022/07/07 05:25:44;;;;;;;16.82;9.23;;;;;;;13.72;78.55;99068.06;1404581;83;21052;-73
2022/07/07 05:27:44;;;;;;;11.55;9.05;;;;;;;13.74;78.52;99070.13;1403199;83;80805;-73
2022/07/07 05:29:45;;;;;;;14.45;9.18;;;;;;;13.78;78.54;99079.59;1404172;83;21030;-73
2022/07/07 05:31:46;;;;;;;18.15;9.85;;;;;;;13.86;78.59;99079.61;1405215;83;21153;-73
2022/07/07 05:33:47;;;;;;;;;;;;;;;13.90;78.58;99078.48;1409831;83;81605;-73
2022/07/07 05:35:48;;;;;;;12.20;9.28;;;;;;;13.98;78.65;99084.16;1406937;83;20300;-73
2022/07/07 05:37:49;;;;;;;17.92;9.25;;;;;;;14.03;78.60;99083.91;1404347;83;21051;-73
2022/07/07 05:39:51;;;;;;;;;;;;;;;14.08;78.63;99083.12;1404734;83;80856;-73
2022/07/07 05:41:52;;;;;;;;;;;;;;;14.17;78.78;99075.11;1408687;83;20124;-73
2022/07/07 05:43:53;;;;;;;13.15;9.98;;;;;;;14.26;78.84;99075.39;1403870;83;20161;-74
2022/07/07 05:45:54;;;;;;;15.05;10.03;;;;;;;14.33;78.73;99071.89;1403438;83;80757;-74
2022/07/07 05:47:55;;;;;;;12.73;9.10;;;;;;;14.42;78.70;99061.17;1404190;83;21055;-74
2022/07/07 05:49:56;;;;;;;;;;;;;;;14.51;78.64;99069.02;1407699;83;21567;-74
2022/07/07 05:51:56;;;;;;;36.68;10.72;;;;;;;14.60;78.70;99065.30;1403077;83;67105;-74
2022/07/07 05:53:57;;;;;;;;;;;;;;;14.70;78.69;99070.06;1408253;83;21014;-74
2022/07/07 05:55:59;;;;;;;16.50;10.70;;;;;;;14.78;78.58;99063.31;1405118;83;20207;-74
2022/07/07 05:57:59;;;;;;;12.53;10.45;;;;;;;14.88;78.61;99064.05;1379830;84;80730;-74
2022/07/07 06:00:01;;;;;;;11.63;9.85;;;;;;;14.97;78.59;99064.80;1404651;83;21070;-74
2022/07/07 06:02:02;;;;;;;11.68;10.48;;;;;;;15.06;78.49;99064.66;1401009;83;21023;-74
2022/07/07 06:04:03;;;;;;;;;;;;;;;15.11;78.49;99063.41;1405476;83;81756;-74
2022/07/07 06:06:04;;;;;;;19.30;10.50;;;;;;;15.05;78.40;99037.27;1404806;83;20407;-74
2022/07/07 06:08:05;;;;;;;20.32;10.05;;;;;;;15.30;78.35;99063.53;1402623;83;21128;-74
2022/07/07 06:10:07;;;;;;;;;;;;;;;15.39;78.23;99067.38;1404931;83;81475;-74
2022/07/07 06:12:09;;;;;;;23.12;10.25;;;;;;;15.48;78.25;99064.11;1403274;83;20156;-74
2022/07/07 06:14:10;;;;;;;13.25;9.78;;;;;;;15.57;78.21;99062.14;1402271;83;21019;-73
2022/07/07 06:16:11;;;;;;;16.55;10.63;;;;;;;15.65;78.14;99058.48;1402214;83;82525;-74
2022/07/07 06:18:13;;;;;;;20.30;11.22;;;;;;;15.75;78.17;99052.06;1403815;83;21069;-73
2022/07/07 06:20:14;;;;;;;17.95;9.90;;;;;;;15.83;77.99;99062.21;1389644;84;21062;-74
2022/07/07 06:22:15;;;;;;;16.05;10.48;;;;;;;15.92;77.88;99054.08;1404909;83;21084;-74
2022/07/07 06:24:16;;;;;;;;;;;;;;;15.98;77.80;99057.16;1406522;83;21007;-74
2022/07/07 06:26:17;;;;;;;15.13;9.75;;;;;;;16.07;77.75;99056.99;1402693;83;67359;-75
2022/07/07 06:28:18;;;;;;;24.60;10.43;;;;;;;16.11;77.55;99055.82;1400947;83;21019;-75
2022/07/07 06:30:19;;;;;;;;;;;;;;;16.20;77.45;99048.16;1404889;83;21072;-75
2022/07/07 06:32:20;;;;;;;17.02;9.98;;;;;;;16.29;77.37;99043.53;1404458;83;67268;-75
2022/07/07 06:34:20;;;;;;;;;;;;;;;16.38;77.50;99040.69;1405572;83;21047;-75
2022/07/07 06:36:24;;;;;;;24.20;9.33;;;;;;;16.44;77.42;99039.77;1404032;83;20144;-74
2022/07/07 06:38:25;;;;;;;22.20;8.55;;;;;;;16.50;77.39;99042.01;1402440;83;81046;-74
2022/07/07 06:40:26;;;;;;;19.05;8.68;;;;;;;16.59;77.32;99044.97;1402543;83;21062;-74
2022/07/07 06:42:28;;;;;;;17.48;7.95;;;;;;;16.66;77.09;99048.87;1401633;83;21024;-75
2022/07/07 06:44:30;;;;;;;22.77;8.50;;;;;;;16.76;77.14;99051.72;1401484;83;81789;-74
2022/07/07 06:46:31;;;;;;;10.15;8.08;;;;;;;16.83;76.93;99043.16;1401910;83;22321;-74
2022/07/07 06:48:32;;;;;;;14.05;8.03;;;;;;;16.93;76.96;99048.69;1407063;82;21043;-75
2022/07/07 06:50:33;;;;;;;15.05;8.73;;;;;;;17.04;76.90;99042.58;1405963;83;81993;-75
2022/07/07 06:52:34;;;;;;;24.85;9.05;;;;;;;17.12;76.84;99045.52;1406392;83;21511;-73
2022/07/07 06:54:35;;;;;;;;;;;;;;;17.16;76.58;99039.01;1406783;83;21023;-74
2022/07/07 06:56:37;;;;;;;19.12;7.70;;;;;;;17.16;76.51;99036.34;1405579;83;67057;-75
2022/07/07 06:58:43;;;;;;;13.35;7.95;;;;;;;17.26;76.48;99046.32;1405949;83;21130;-76
2022/07/07 07:00:46;;;;;;;11.53;7.55;;;;;;;17.33;76.53;99028.91;1375334;84;21013;-76
2022/07/07 07:03:08;;;;;;;;;;;;;;;;;;;;;
2022/07/07 07:05:22;;;;;;;11.15;7.15;;;;;;;17.49;76.08;99033.94;1403243;83;21583;-76
2022/07/07 07:07:29;;;;;;;14.65;6.62;;;;;;;17.59;76.07;99032.75;1380346;84;22381;-74
2022/07/07 07:09:30;;;;;;;11.18;6.87;;;;;;;17.68;76.13;99034.22;1401479;83;80865;-74
2022/07/07 07:11:31;;;;;;;17.20;5.33;;;;;;;17.78;76.09;99032.19;1406266;83;21078;-73
2022/07/07 07:13:32;;;;;;;21.82;6.60;;;;;;;17.88;76.05;99024.66;1406667;83;21040;-76
2022/07/07 07:15:39;;;;;;;13.13;5.83;;;;;;;17.99;75.85;99029.20;1404156;83;80915;-76
2022/07/07 07:17:42;;;;;;;6.20;5.60;;;;;;;18.09;75.57;99024.48;1404928;83;21126;-73
2022/07/07 07:19:43;;;;;;;13.30;5.53;;;;;;;18.14;75.36;99024.48;1402216;83;21091;-74
2022/07/07 07:21:44;;;;;;;10.20;5.37;;;;;;;18.24;75.37;99025.10;1399496;83;82091;-74
2022/07/07 07:23:45;;;;;;;10.18;4.42;;;;;;;18.33;75.16;99025.68;1402646;83;21506;-73
2022/07/07 07:25:46;;;;;;;13.55;4.75;;;;;;;18.42;74.77;99024.12;1403690;83;21008;-73
2022/07/07 07:27:47;;;;;;;13.48;5.15;;;;;;;18.49;74.53;99024.82;1403555;83;80722;-73
2022/07/07 07:29:48;;;;;;;9.63;4.62;;;;;;;18.67;74.58;99024.31;1381513;84;21051;-73
2022/07/07 07:31:50;;;;;;;17.87;4.45;;;;;;;18.79;74.26;99019.31;1403128;83;21341;-73
2022/07/07 07:33:51;;;;;;;10.58;4.17;;;;;;;18.89;74.01;99017.60;1404099;83;80759;-74
2022/07/07 07:35:52;;;;;;;13.25;4.75;;;;;;;18.98;73.67;99021.83;1406662;83;21337;-74
2022/07/07 07:37:53;;;;;;;19.37;5.15;;;;;;;19.04;73.46;99021.34;1403900;83;21051;-74
2022/07/07 07:39:54;;;;;;;10.68;5.03;;;;;;;19.10;73.39;99020.81;1402672;83;81502;-74
2022/07/07 07:41:55;;;;;;;13.60;5.17;;;;;;;19.12;73.53;99008.66;1404658;83;21015;-74
2022/07/07 07:43:56;;;;;;;8.78;5.20;;;;;;;19.12;73.53;99008.66;1405690;83;21027;-74
2022/07/07 07:46:01;;;;;;;8.73;5.10;;;;;;;19.18;73.35;99018.35;1403454;83;80680;-74
2022/07/07 07:48:03;;;;;;;11.68;5.28;;;;;;;19.18;73.17;99014.34;1406750;83;21138;-75
2022/07/07 07:50:04;;;;;;;22.15;5.35;;;;;;;19.20;72.97;99012.41;1380431;84;21127;-74
2022/07/07 07:52:06;;;;;;;11.35;4.35;;;;;;;19.25;73.04;99011.17;1387736;84;80831;-74
2022/07/07 07:54:07;;;;;;;8.30;4.28;;;;;;;19.32;72.89;99011.02;1403003;83;21014;-73
2022/07/07 07:56:08;;;;;;;7.40;4.40;;;;;;;19.38;72.66;99010.48;1404558;83;21066;-74
2022/07/07 07:58:10;;;;;;;7.55;4.40;;;;;;;19.48;72.59;99007.41;1402101;83;81431;-74
2022/07/07 08:00:14;;;;;;;6.80;4.92;;;;;;;19.59;72.49;99004.30;1395034;84;21344;-74
2022/07/07 08:02:15;;;;;;;5.83;3.92;;;;;;;19.70;72.34;99005.55;1395787;83;21068;-73
2022/07/07 08:04:16;;;;;;;20.85;4.37;;;;;;;19.79;71.93;99007.45;1397733;84;21024;-73
2022/07/07 08:06:17;;;;;;;14.78;4.58;;;;;;;19.89;71.95;99010.20;1398064;84;21031;-72
2022/07/07 08:08:18;;;;;;;11.53;4.00;;;;;;;19.87;71.48;99007.67;1393520;84;81160;-73
2022/07/07 08:10:19;;;;;;;9.50;3.90;;;;;;;19.87;71.51;99011.68;1396017;83;21041;-73
2022/07/07 08:12:20;;;;;;;14.78;3.98;;;;;;;19.94;71.23;99011.14;1397191;84;21607;-73
2022/07/07 08:14:21;;;;;;;4.20;3.50;;;;;;;20.03;70.88;99007.67;1395581;83;80910;-73
2022/07/07 08:16:22;;;;;;;9.55;3.83;;;;;;;20.11;70.99;99006.52;1398135;83;21749;-73
2022/07/07 08:18:26;;;;;;;7.67;3.90;;;;;;;20.12;70.52;99010.89;1397379;84;21010;-74
2022/07/07 08:20:26;;;;;;;9.40;3.67;;;;;;;20.14;70.62;99007.57;1394550;84;81536;-74
2022/07/07 08:22:27;;;;;;;7.95;3.70;;;;;;;20.15;70.51;99005.27;1396415;84;21067;-73
2022/07/07 08:24:28;;;;;;;5.92;3.00;;;;;;;20.14;70.42;99007.57;1395014;84;20992;-74
2022/07/07 08:26:29;;;;;;;4.58;3.40;;;;;;;20.19;70.45;99005.34;1394408;83;80766;-74
2022/07/07 08:28:30;;;;;;;11.03;3.92;;;;;;;20.32;70.43;99008.28;1395611;84;22176;-74
2022/07/07 08:30:31;;;;;;;8.38;3.85;;;;;;;20.41;70.17;99010.16;1394630;84;21137;-74
2022/07/07 08:32:32;;;;;;;8.68;3.58;;;;;;;20.46;70.08;99003.88;1394522;84;80830;-74
2022/07/07 08:34:34;;;;;;;5.00;4.15;;;;;;;20.55;69.79;99004.41;1394824;84;21039;-74
2022/07/07 08:36:37;;;;;;;6.90;3.77;;;;;;;20.64;69.83;99005.40;1394910;83;21055;-74
2022/07/07 08:38:38;;;;;;;22.52;5.33;;;;;;;20.73;69.67;99006.46;1396779;84;81535;-74
2022/07/07 08:40:39;;;;;;;5.40;3.83;;;;;;;20.78;69.17;99003.35;1394518;84;21079;-74
2022/07/07 08:42:40;;;;;;;15.48;3.70;;;;;;;20.75;69.18;99007.15;1397214;84;21024;-74
2022/07/07 08:44:41;;;;;;;8.53;2.65;;;;;;;20.78;69.14;99003.35;1393114;84;81469;-74
2022/07/07 08:46:43;;;;;;;6.75;3.47;;;;;;;20.82;69.02;99000.75;1394448;83;21725;-74
2022/07/07 08:48:44;;;;;;;5.55;4.25;;;;;;;20.87;68.67;99002.02;1395407;83;21064;-75
2022/07/07 08:50:46;;;;;;;4.08;3.05;;;;;;;20.83;68.55;98995.25;1395614;83;81438;-74
2022/07/07 08:52:51;;;;;;;5.03;3.30;;;;;;;20.82;68.47;98998.91;1395634;83;21043;-74
2022/07/07 08:54:54;;;;;;;10.13;3.47;;;;;;;20.78;68.21;99000.17;1394287;83;21003;-74
2022/07/07 08:56:55;;;;;;;8.58;3.62;;;;;;;20.68;68.17;99002.00;1397136;84;81573;-75
2022/07/07 08:58:57;;;;;;;4.08;3.52;;;;;;;20.58;68.12;98998.77;1398372;83;22326;-74
2022/07/07 09:00:58;;;;;;;3.50;3.20;;;;;;;20.53;68.21;98998.36;1402545;83;21118;-74
2022/07/07 09:03:03;;;;;;;8.00;3.87;;;;;;;20.49;68.19;99002.29;1404811;83;81053;-73
2022/07/07 09:05:05;;;;;;;10.75;3.87;;;;;;;20.45;68.03;98998.19;1402606;83;21026;-72
2022/07/07 09:07:06;;;;;;;11.55;3.87;;;;;;;20.41;68.17;99003.47;1401557;83;21090;-72
2022/07/07 09:09:08;;;;;;;5.05;3.20;;;;;;;20.35;68.05;99002.65;1401081;83;80686;-72
2022/07/07 09:11:10;;;;;;;8.80;3.87;;;;;;;20.31;68.06;99001.23;1384111;84;21872;-72
2022/07/07 09:13:29;;;;;;;8.30;3.30;;;;;;;20.28;67.96;98998.83;1403521;83;21059;-73
2022/07/07 09:15:34;;;;;;;7.55;3.35;;;;;;;20.25;67.84;98998.10;1401184;83;80542;-73
2022/07/07 09:17:36;;;;;;;8.65;3.30;;;;;;;20.20;67.62;98999.02;1402394;83;21037;-73
2022/07/07 09:19:37;;;;;;;15.20;4.05;;;;;;;20.19;67.66;98998.66;1404736;83;21527;-72
2022/07/07 09:21:38;;;;;;;15.93;3.05;;;;;;;20.17;67.56;99002.45;1400728;83;81574;-72
2022/07/07 09:23:42;;;;;;;9.28;3.37;;;;;;;20.15;67.67;98998.57;1404926;83;21088;-72
2022/07/07 09:25:43;;;;;;;3.87;3.12;;;;;;;20.31;67.82;99004.77;1401152;83;21593;-72
2022/07/07 09:28:02;;;;;;;4.42;3.05;;;;;;;20.57;67.80;98998.44;1400579;83;80611;-72
2022/07/07 09:30:04;;;;;;;7.50;3.12;;;;;;;20.82;67.50;98997.56;1403619;83;21086;-72
2022/07/07 09:32:06;;;;;;;10.30;3.40;;;;;;;20.94;67.07;98996.13;1399863;83;21023;-72
2022/07/07 09:34:11;;;;;;;5.58;3.22;;;;;;;21.11;67.14;98995.41;1401421;83;81852;-72